sensor_id;sensor_type;location;lat;lon;timestamp;P1;durP1;ratioP1;P2;durP2;ratioP2
46399;SDS011;32104;50.838;4.388;2022-12-07T00:00:25;14.88;;;7.10;;
46399;SDS011;32104;50.838;4.388;2022-12-07T00:02:57;12.68;;;7.35;;
46399;SDS011;32104;50.838;4.388;2022-12-07T00:05:28;15.60;;;7.20;;
46399;SDS011;32104;50.838;4.388;2022-12-07T00:07:55;20.00;;;7.88;;
46399;SDS011;32104;50.838;4.388;2022-12-07T00:10:26;15.55;;;7.28;;
46399;SDS011;32104;50.838;4.388;2022-12-07T00:12:52;11.52;;;6.55;;
46399;SDS011;32104;50.838;4.388;2022-12-07T00:15:21;17.90;;;8.02;;
46399;SDS011;32104;50.838;4.388;2022-12-07T00:17:50;18.23;;;7.78;;
46399;SDS011;32104;50.838;4.388;2022-12-07T00:20:20;19.60;;;7.30;;
46399;SDS011;32104;50.838;4.388;2022-12-07T00:22:49;17.67;;;7.47;;
46399;SDS011;32104;50.838;4.388;2022-12-07T00:25:18;23.05;;;9.27;;
46399;SDS011;32104;50.838;4.388;2022-12-07T00:27:49;17.20;;;7.53;;
46399;SDS011;32104;50.838;4.388;2022-12-07T00:30:25;22.05;;;9.32;;
46399;SDS011;32104;50.838;4.388;2022-12-07T00:32:53;18.08;;;9.00;;
46399;SDS011;32104;50.838;4.388;2022-12-07T00:35:19;20.92;;;9.35;;
46399;SDS011;32104;50.838;4.388;2022-12-07T00:37:45;22.85;;;9.52;;
46399;SDS011;32104;50.838;4.388;2022-12-07T00:42:44;17.08;;;7.97;;
46399;SDS011;32104;50.838;4.388;2022-12-07T00:45:10;18.77;;;9.63;;
46399;SDS011;32104;50.838;4.388;2022-12-07T00:47:37;19.02;;;8.57;;
46399;SDS011;32104;50.838;4.388;2022-12-07T00:50:05;19.85;;;9.25;;
46399;SDS011;32104;50.838;4.388;2022-12-07T00:52:35;21.42;;;9.00;;
46399;SDS011;32104;50.838;4.388;2022-12-07T00:55:01;18.77;;;8.93;;
46399;SDS011;32104;50.838;4.388;2022-12-07T00:57:27;22.25;;;10.20;;
46399;SDS011;32104;50.838;4.388;2022-12-07T00:59:58;22.48;;;9.77;;
46399;SDS011;32104;50.838;4.388;2022-12-07T01:02:25;16.92;;;8.93;;
46399;SDS011;32104;50.838;4.388;2022-12-07T01:04:51;22.05;;;9.27;;
46399;SDS011;32104;50.838;4.388;2022-12-07T01:07:18;21.02;;;9.35;;
46399;SDS011;32104;50.838;4.388;2022-12-07T01:09:47;24.88;;;10.10;;
46399;SDS011;32104;50.838;4.388;2022-12-07T01:31:12;19.48;;;8.95;;
46399;SDS011;32104;50.838;4.388;2022-12-07T01:39:09;21.25;;;8.90;;
46399;SDS011;32104;50.838;4.388;2022-12-07T01:41:42;19.70;;;9.50;;
46399;SDS011;32104;50.838;4.388;2022-12-07T01:54:59;17.05;;;8.48;;
46399;SDS011;32104;50.838;4.388;2022-12-07T02:00:13;18.17;;;7.78;;
46399;SDS011;32104;50.838;4.388;2022-12-07T03:17:59;10.82;;;5.78;;
46399;SDS011;32104;50.838;4.388;2022-12-07T03:20:45;9.40;;;5.40;;
46399;SDS011;32104;50.838;4.388;2022-12-07T03:23:25;10.77;;;5.82;;
46399;SDS011;32104;50.838;4.388;2022-12-07T03:26:09;14.95;;;5.30;;
46399;SDS011;32104;50.838;4.388;2022-12-07T03:28:47;12.48;;;5.78;;
46399;SDS011;32104;50.838;4.388;2022-12-07T03:31:22;12.13;;;6.13;;
46399;SDS011;32104;50.838;4.388;2022-12-07T03:33:56;11.13;;;5.57;;
46399;SDS011;32104;50.838;4.388;2022-12-07T03:40:17;15.13;;;5.53;;
46399;SDS011;32104;50.838;4.388;2022-12-07T03:43:11;15.00;;;6.10;;
46399;SDS011;32104;50.838;4.388;2022-12-07T03:45:45;18.50;;;5.78;;
46399;SDS011;32104;50.838;4.388;2022-12-07T03:54:36;11.57;;;5.22;;
46399;SDS011;32104;50.838;4.388;2022-12-07T03:57:17;8.25;;;4.65;;
46399;SDS011;32104;50.838;4.388;2022-12-07T03:59:54;11.65;;;6.03;;
46399;SDS011;32104;50.838;4.388;2022-12-07T04:02:26;15.68;;;5.38;;
46399;SDS011;32104;50.838;4.388;2022-12-07T04:04:54;12.90;;;5.75;;
46399;SDS011;32104;50.838;4.388;2022-12-07T04:07:23;11.82;;;5.97;;
46399;SDS011;32104;50.838;4.388;2022-12-07T04:09:56;11.23;;;5.32;;
46399;SDS011;32104;50.838;4.388;2022-12-07T04:12:23;9.20;;;5.38;;
46399;SDS011;32104;50.838;4.388;2022-12-07T04:15:09;9.50;;;4.43;;
46399;SDS011;32104;50.838;4.388;2022-12-07T04:17:44;13.23;;;5.25;;
46399;SDS011;32104;50.838;4.388;2022-12-07T04:20:18;14.43;;;6.03;;
46399;SDS011;32104;50.838;4.388;2022-12-07T04:27:42;8.13;;;4.78;;
46399;SDS011;32104;50.838;4.388;2022-12-07T04:30:08;13.18;;;5.25;;
46399;SDS011;32104;50.838;4.388;2022-12-07T04:32:34;9.48;;;5.60;;
46399;SDS011;32104;50.838;4.388;2022-12-07T04:35:00;16.55;;;6.50;;
46399;SDS011;32104;50.838;4.388;2022-12-07T04:37:25;12.63;;;6.47;;
46399;SDS011;32104;50.838;4.388;2022-12-07T04:39:51;19.00;;;7.30;;
46399;SDS011;32104;50.838;4.388;2022-12-07T04:42:19;12.63;;;7.40;;
46399;SDS011;32104;50.838;4.388;2022-12-07T04:44:45;15.27;;;6.72;;
46399;SDS011;32104;50.838;4.388;2022-12-07T04:47:11;15.52;;;7.00;;
46399;SDS011;32104;50.838;4.388;2022-12-07T04:49:37;10.50;;;6.25;;
46399;SDS011;32104;50.838;4.388;2022-12-07T04:52:06;20.80;;;7.13;;
46399;SDS011;32104;50.838;4.388;2022-12-07T06:07:08;16.77;;;6.03;;
46399;SDS011;32104;50.838;4.388;2022-12-07T06:09:38;14.70;;;6.67;;
46399;SDS011;32104;50.838;4.388;2022-12-07T06:27:49;16.50;;;5.30;;
46399;SDS011;32104;50.838;4.388;2022-12-07T06:30:17;11.50;;;5.38;;
46399;SDS011;32104;50.838;4.388;2022-12-07T06:32:51;11.13;;;5.38;;
46399;SDS011;32104;50.838;4.388;2022-12-07T06:35:50;8.80;;;5.20;;
46399;SDS011;32104;50.838;4.388;2022-12-07T06:38:18;9.60;;;5.15;;
46399;SDS011;32104;50.838;4.388;2022-12-07T06:40:46;9.50;;;4.47;;
46399;SDS011;32104;50.838;4.388;2022-12-07T06:53:38;9.52;;;4.72;;
46399;SDS011;32104;50.838;4.388;2022-12-07T06:56:12;14.73;;;4.40;;
46399;SDS011;32104;50.838;4.388;2022-12-07T06:58:39;13.77;;;5.10;;
46399;SDS011;32104;50.838;4.388;2022-12-07T07:11:26;9.73;;;3.80;;
46399;SDS011;32104;50.838;4.388;2022-12-07T07:13:53;9.10;;;3.63;;
46399;SDS011;32104;50.838;4.388;2022-12-07T07:16:32;11.20;;;4.25;;
46399;SDS011;32104;50.838;4.388;2022-12-07T07:26:45;10.48;;;3.90;;
46399;SDS011;32104;50.838;4.388;2022-12-07T07:29:33;12.27;;;4.28;;
46399;SDS011;32104;50.838;4.388;2022-12-07T07:32:20;15.13;;;4.05;;
46399;SDS011;32104;50.838;4.388;2022-12-07T07:40:15;10.43;;;3.78;;
46399;SDS011;32104;50.838;4.388;2022-12-07T07:53:24;13.60;;;5.07;;
46399;SDS011;32104;50.838;4.388;2022-12-07T07:56:03;8.75;;;4.70;;
46399;SDS011;32104;50.838;4.388;2022-12-07T07:58:29;10.98;;;4.57;;
46399;SDS011;32104;50.838;4.388;2022-12-07T08:00:55;9.40;;;4.70;;
46399;SDS011;32104;50.838;4.388;2022-12-07T08:03:24;9.30;;;4.65;;
46399;SDS011;32104;50.838;4.388;2022-12-07T08:05:50;13.07;;;5.07;;
46399;SDS011;32104;50.838;4.388;2022-12-07T08:08:16;11.93;;;4.70;;
46399;SDS011;32104;50.838;4.388;2022-12-07T08:10:53;11.30;;;4.65;;
46399;SDS011;32104;50.838;4.388;2022-12-07T08:13:23;16.48;;;4.60;;
46399;SDS011;32104;50.838;4.388;2022-12-07T08:15:53;10.73;;;4.60;;
46399;SDS011;32104;50.838;4.388;2022-12-07T08:18:19;13.05;;;4.97;;
46399;SDS011;32104;50.838;4.388;2022-12-07T08:20:45;11.48;;;4.85;;
46399;SDS011;32104;50.838;4.388;2022-12-07T08:23:11;10.13;;;4.70;;
46399;SDS011;32104;50.838;4.388;2022-12-07T08:25:37;18.00;;;5.07;;
46399;SDS011;32104;50.838;4.388;2022-12-07T08:28:03;15.38;;;5.18;;
46399;SDS011;32104;50.838;4.388;2022-12-07T08:30:30;15.43;;;4.95;;
46399;SDS011;32104;50.838;4.388;2022-12-07T08:32:56;13.80;;;5.53;;
46399;SDS011;32104;50.838;4.388;2022-12-07T08:35:25;14.27;;;5.57;;
46399;SDS011;32104;50.838;4.388;2022-12-07T08:37:51;9.75;;;5.05;;
46399;SDS011;32104;50.838;4.388;2022-12-07T08:40:17;15.05;;;6.72;;
46399;SDS011;32104;50.838;4.388;2022-12-07T08:42:44;11.23;;;4.97;;
46399;SDS011;32104;50.838;4.388;2022-12-07T08:45:14;16.42;;;5.60;;
46399;SDS011;32104;50.838;4.388;2022-12-07T08:47:43;10.10;;;5.10;;
46399;SDS011;32104;50.838;4.388;2022-12-07T08:50:14;9.68;;;4.78;;
46399;SDS011;32104;50.838;4.388;2022-12-07T08:52:42;13.50;;;4.80;;
46399;SDS011;32104;50.838;4.388;2022-12-07T08:55:17;10.00;;;4.18;;
46399;SDS011;32104;50.838;4.388;2022-12-07T08:57:43;7.70;;;3.75;;
46399;SDS011;32104;50.838;4.388;2022-12-07T09:00:09;14.20;;;4.45;;
46399;SDS011;32104;50.838;4.388;2022-12-07T09:02:36;9.65;;;3.78;;
46399;SDS011;32104;50.838;4.388;2022-12-07T09:05:02;11.02;;;3.60;;
46399;SDS011;32104;50.838;4.388;2022-12-07T09:07:29;12.02;;;3.60;;
46399;SDS011;32104;50.838;4.388;2022-12-07T09:09:58;10.98;;;3.58;;
46399;SDS011;32104;50.838;4.388;2022-12-07T09:12:23;14.40;;;3.03;;
46399;SDS011;32104;50.838;4.388;2022-12-07T09:15:05;9.00;;;2.83;;
46399;SDS011;32104;50.838;4.388;2022-12-07T09:17:34;5.93;;;2.70;;
46399;SDS011;32104;50.838;4.388;2022-12-07T09:20:06;11.05;;;3.00;;
46399;SDS011;32104;50.838;4.388;2022-12-07T09:22:33;5.65;;;2.67;;
46399;SDS011;32104;50.838;4.388;2022-12-07T09:25:02;6.57;;;2.78;;
46399;SDS011;32104;50.838;4.388;2022-12-07T09:27:30;5.72;;;3.30;;
46399;SDS011;32104;50.838;4.388;2022-12-07T09:29:56;6.22;;;3.00;;
46399;SDS011;32104;50.838;4.388;2022-12-07T09:32:24;5.15;;;3.10;;
46399;SDS011;32104;50.838;4.388;2022-12-07T09:34:51;6.35;;;2.72;;
46399;SDS011;32104;50.838;4.388;2022-12-07T09:37:18;4.45;;;2.10;;
46399;SDS011;32104;50.838;4.388;2022-12-07T09:39:45;5.00;;;2.60;;
46399;SDS011;32104;50.838;4.388;2022-12-07T09:42:17;8.55;;;2.67;;
46399;SDS011;32104;50.838;4.388;2022-12-07T09:44:58;13.23;;;2.67;;
46399;SDS011;32104;50.838;4.388;2022-12-07T09:47:24;7.85;;;2.88;;
46399;SDS011;32104;50.838;4.388;2022-12-07T09:49:51;10.23;;;2.97;;
46399;SDS011;32104;50.838;4.388;2022-12-07T09:52:25;5.05;;;2.72;;
46399;SDS011;32104;50.838;4.388;2022-12-07T09:54:54;7.53;;;3.13;;
46399;SDS011;32104;50.838;4.388;2022-12-07T09:57:22;8.88;;;3.17;;
46399;SDS011;32104;50.838;4.388;2022-12-07T09:59:55;9.38;;;3.30;;
46399;SDS011;32104;50.838;4.388;2022-12-07T10:02:35;12.40;;;3.88;;
46399;SDS011;32104;50.838;4.388;2022-12-07T10:05:06;9.77;;;3.17;;
46399;SDS011;32104;50.838;4.388;2022-12-07T10:07:37;9.15;;;3.17;;
46399;SDS011;32104;50.838;4.388;2022-12-07T10:10:04;8.88;;;3.80;;
46399;SDS011;32104;50.838;4.388;2022-12-07T10:13:06;6.07;;;2.50;;
46399;SDS011;32104;50.838;4.388;2022-12-07T10:15:48;7.80;;;3.33;;
46399;SDS011;32104;50.838;4.388;2022-12-07T10:21:24;6.93;;;3.58;;
46399;SDS011;32104;50.838;4.388;2022-12-07T10:24:13;6.68;;;3.25;;
46399;SDS011;32104;50.838;4.388;2022-12-07T10:29:46;12.40;;;3.85;;
46399;SDS011;32104;50.838;4.388;2022-12-07T10:35:30;6.93;;;3.25;;
46399;SDS011;32104;50.838;4.388;2022-12-07T10:38:27;12.32;;;3.53;;
46399;SDS011;32104;50.838;4.388;2022-12-07T10:43:58;9.73;;;3.95;;
46399;SDS011;32104;50.838;4.388;2022-12-07T10:49:46;8.40;;;4.10;;
46399;SDS011;32104;50.838;4.388;2022-12-07T11:01:33;8.68;;;2.97;;
46399;SDS011;32104;50.838;4.388;2022-12-07T11:09:47;7.78;;;3.00;;
46399;SDS011;32104;50.838;4.388;2022-12-07T11:28:46;7.53;;;2.42;;
46399;SDS011;32104;50.838;4.388;2022-12-07T11:34:54;8.93;;;1.88;;
46399;SDS011;32104;50.838;4.388;2022-12-07T12:20:55;7.72;;;1.40;;
46399;SDS011;32104;50.838;4.388;2022-12-07T12:26:20;3.40;;;1.10;;
46399;SDS011;32104;50.838;4.388;2022-12-07T12:32:42;4.93;;;1.35;;
46399;SDS011;32104;50.838;4.388;2022-12-07T12:41:58;5.50;;;0.85;;
46399;SDS011;32104;50.838;4.388;2022-12-07T12:55:31;5.72;;;0.90;;
46399;SDS011;32104;50.838;4.388;2022-12-07T13:09:17;3.17;;;0.80;;
46399;SDS011;32104;50.838;4.388;2022-12-07T13:12:16;6.28;;;1.17;;
46399;SDS011;32104;50.838;4.388;2022-12-07T13:20:07;5.00;;;0.80;;
46399;SDS011;32104;50.838;4.388;2022-12-07T13:30:15;4.35;;;0.90;;
46399;SDS011;32104;50.838;4.388;2022-12-07T13:38:35;4.40;;;0.90;;
46399;SDS011;32104;50.838;4.388;2022-12-07T13:41:24;4.85;;;0.98;;
46399;SDS011;32104;50.838;4.388;2022-12-07T13:44:17;2.20;;;0.80;;
46399;SDS011;32104;50.838;4.388;2022-12-07T13:50:20;5.72;;;0.82;;
46399;SDS011;32104;50.838;4.388;2022-12-07T13:53:11;4.07;;;0.82;;
46399;SDS011;32104;50.838;4.388;2022-12-07T13:55:44;3.05;;;0.90;;
46399;SDS011;32104;50.838;4.388;2022-12-07T13:58:11;3.70;;;1.20;;
46399;SDS011;32104;50.838;4.388;2022-12-07T14:00:43;5.32;;;0.98;;
46399;SDS011;32104;50.838;4.388;2022-12-07T14:03:32;8.48;;;0.90;;
46399;SDS011;32104;50.838;4.388;2022-12-07T14:08:50;3.80;;;1.20;;
46399;SDS011;32104;50.838;4.388;2022-12-07T14:11:38;5.55;;;0.93;;
46399;SDS011;32104;50.838;4.388;2022-12-07T14:14:34;3.60;;;0.70;;
46399;SDS011;32104;50.838;4.388;2022-12-07T14:17:12;4.68;;;0.70;;
46399;SDS011;32104;50.838;4.388;2022-12-07T14:19:49;2.40;;;0.60;;
46399;SDS011;32104;50.838;4.388;2022-12-07T14:22:57;3.88;;;0.70;;
46399;SDS011;32104;50.838;4.388;2022-12-07T14:25:44;2.40;;;0.80;;
46399;SDS011;32104;50.838;4.388;2022-12-07T14:28:28;5.00;;;0.70;;
46399;SDS011;32104;50.838;4.388;2022-12-07T14:31:03;1.83;;;0.45;;
46399;SDS011;32104;50.838;4.388;2022-12-07T14:33:33;3.92;;;1.02;;
46399;SDS011;32104;50.838;4.388;2022-12-07T14:36:12;2.33;;;0.70;;
46399;SDS011;32104;50.838;4.388;2022-12-07T14:44:08;7.43;;;0.80;;
46399;SDS011;32104;50.838;4.388;2022-12-07T14:46:43;2.83;;;0.77;;
46399;SDS011;32104;50.838;4.388;2022-12-07T14:49:15;2.55;;;0.95;;
46399;SDS011;32104;50.838;4.388;2022-12-07T14:51:47;5.53;;;0.60;;
46399;SDS011;32104;50.838;4.388;2022-12-07T14:54:26;2.97;;;0.55;;
46399;SDS011;32104;50.838;4.388;2022-12-07T14:57:09;2.55;;;0.55;;
46399;SDS011;32104;50.838;4.388;2022-12-07T15:05:44;1.05;;;0.40;;
46399;SDS011;32104;50.838;4.388;2022-12-07T15:08:49;4.47;;;0.60;;
46399;SDS011;32104;50.838;4.388;2022-12-07T15:14:37;1.60;;;0.40;;
46399;SDS011;32104;50.838;4.388;2022-12-07T15:17:07;0.65;;;0.50;;
46399;SDS011;32104;50.838;4.388;2022-12-07T15:19:38;2.42;;;0.60;;
46399;SDS011;32104;50.838;4.388;2022-12-07T15:22:04;0.82;;;0.50;;
46399;SDS011;32104;50.838;4.388;2022-12-07T15:24:41;4.07;;;0.60;;
46399;SDS011;32104;50.838;4.388;2022-12-07T15:27:13;1.42;;;0.40;;
46399;SDS011;32104;50.838;4.388;2022-12-07T15:32:08;2.75;;;0.50;;
46399;SDS011;32104;50.838;4.388;2022-12-07T15:34:39;2.55;;;0.75;;
46399;SDS011;32104;50.838;4.388;2022-12-07T15:37:06;4.13;;;0.80;;
46399;SDS011;32104;50.838;4.388;2022-12-07T15:39:35;3.78;;;0.90;;
46399;SDS011;32104;50.838;4.388;2022-12-07T15:42:05;2.35;;;0.70;;
46399;SDS011;32104;50.838;4.388;2022-12-07T15:44:31;9.25;;;0.77;;
46399;SDS011;32104;50.838;4.388;2022-12-07T15:47:15;6.63;;;0.95;;
46399;SDS011;32104;50.838;4.388;2022-12-07T15:49:41;2.58;;;0.77;;
46399;SDS011;32104;50.838;4.388;2022-12-07T15:52:08;2.17;;;0.75;;
46399;SDS011;32104;50.838;4.388;2022-12-07T15:54:46;2.15;;;0.90;;
46399;SDS011;32104;50.838;4.388;2022-12-07T15:57:13;3.63;;;0.90;;
46399;SDS011;32104;50.838;4.388;2022-12-07T15:59:39;4.30;;;0.88;;
46399;SDS011;32104;50.838;4.388;2022-12-07T16:02:09;7.22;;;1.30;;
46399;SDS011;32104;50.838;4.388;2022-12-07T16:04:38;2.55;;;1.10;;
46399;SDS011;32104;50.838;4.388;2022-12-07T16:07:12;3.40;;;1.02;;
46399;SDS011;32104;50.838;4.388;2022-12-07T16:09:51;4.38;;;1.17;;
46399;SDS011;32104;50.838;4.388;2022-12-07T16:12:34;3.83;;;1.27;;
46399;SDS011;32104;50.838;4.388;2022-12-07T16:17:50;3.38;;;1.80;;
46399;SDS011;32104;50.838;4.388;2022-12-07T16:20:20;10.75;;;2.08;;
46399;SDS011;32104;50.838;4.388;2022-12-07T16:22:50;4.65;;;1.80;;
46399;SDS011;32104;50.838;4.388;2022-12-07T16:25:17;6.78;;;2.05;;
46399;SDS011;32104;50.838;4.388;2022-12-07T16:27:45;5.75;;;1.73;;
46399;SDS011;32104;50.838;4.388;2022-12-07T16:30:11;5.32;;;1.95;;
46399;SDS011;32104;50.838;4.388;2022-12-07T16:32:53;6.32;;;1.77;;
46399;SDS011;32104;50.838;4.388;2022-12-07T16:35:20;5.30;;;1.70;;
46399;SDS011;32104;50.838;4.388;2022-12-07T16:37:56;5.07;;;1.52;;
46399;SDS011;32104;50.838;4.388;2022-12-07T16:40:33;7.20;;;1.60;;
46399;SDS011;32104;50.838;4.388;2022-12-07T16:43:05;6.90;;;1.45;;
46399;SDS011;32104;50.838;4.388;2022-12-07T16:45:44;11.47;;;2.13;;
46399;SDS011;32104;50.838;4.388;2022-12-07T16:51:24;6.32;;;2.25;;
46399;SDS011;32104;50.838;4.388;2022-12-07T16:54:21;7.50;;;1.88;;
46399;SDS011;32104;50.838;4.388;2022-12-07T16:57:14;3.88;;;1.67;;
46399;SDS011;32104;50.838;4.388;2022-12-07T17:03:11;4.45;;;1.77;;
46399;SDS011;32104;50.838;4.388;2022-12-07T17:16:36;3.63;;;1.40;;
46399;SDS011;32104;50.838;4.388;2022-12-07T17:22:39;6.63;;;1.88;;
46399;SDS011;32104;50.838;4.388;2022-12-07T17:25:25;6.28;;;1.70;;
46399;SDS011;32104;50.838;4.388;2022-12-07T17:30:30;6.70;;;1.60;;
46399;SDS011;32104;50.838;4.388;2022-12-07T17:33:09;5.47;;;1.60;;
46399;SDS011;32104;50.838;4.388;2022-12-07T17:41:27;4.60;;;1.50;;
46399;SDS011;32104;50.838;4.388;2022-12-07T17:46:46;6.18;;;1.70;;
46399;SDS011;32104;50.838;4.388;2022-12-07T17:49:24;8.85;;;1.48;;
46399;SDS011;32104;50.838;4.388;2022-12-07T17:51:54;4.57;;;1.98;;
46399;SDS011;32104;50.838;4.388;2022-12-07T17:54:38;5.40;;;2.83;;
46399;SDS011;32104;50.838;4.388;2022-12-07T17:57:16;7.53;;;2.58;;
46399;SDS011;32104;50.838;4.388;2022-12-07T18:07:40;8.77;;;3.42;;
46399;SDS011;32104;50.838;4.388;2022-12-07T18:10:09;8.00;;;2.97;;
46399;SDS011;32104;50.838;4.388;2022-12-07T18:15:43;8.65;;;4.13;;
46399;SDS011;32104;50.838;4.388;2022-12-07T18:18:12;9.52;;;3.65;;
46399;SDS011;32104;50.838;4.388;2022-12-07T18:20:38;12.45;;;4.43;;
46399;SDS011;32104;50.838;4.388;2022-12-07T18:23:08;7.63;;;4.15;;
46399;SDS011;32104;50.838;4.388;2022-12-07T18:25:52;10.23;;;4.28;;
46399;SDS011;32104;50.838;4.388;2022-12-07T18:28:24;10.20;;;4.70;;
46399;SDS011;32104;50.838;4.388;2022-12-07T18:30:53;10.60;;;5.55;;
46399;SDS011;32104;50.838;4.388;2022-12-07T18:37:26;12.10;;;5.30;;
46399;SDS011;32104;50.838;4.388;2022-12-07T18:48:41;11.30;;;6.13;;
46399;SDS011;32104;50.838;4.388;2022-12-07T18:56:45;12.70;;;5.90;;
46399;SDS011;32104;50.838;4.388;2022-12-07T19:28:29;15.55;;;5.53;;
46399;SDS011;32104;50.838;4.388;2022-12-07T19:31:24;16.33;;;5.13;;
46399;SDS011;32104;50.838;4.388;2022-12-07T19:33:56;8.93;;;4.75;;
46399;SDS011;32104;50.838;4.388;2022-12-07T19:36:23;11.93;;;4.88;;
46399;SDS011;32104;50.838;4.388;2022-12-07T19:38:57;15.95;;;5.38;;
46399;SDS011;32104;50.838;4.388;2022-12-07T19:41:32;12.02;;;5.45;;
46399;SDS011;32104;50.838;4.388;2022-12-07T19:44:16;10.80;;;4.50;;
46399;SDS011;32104;50.838;4.388;2022-12-07T19:47:10;15.52;;;5.75;;
46399;SDS011;32104;50.838;4.388;2022-12-07T19:49:44;16.40;;;5.18;;
46399;SDS011;32104;50.838;4.388;2022-12-07T19:52:29;12.63;;;5.18;;
46399;SDS011;32104;50.838;4.388;2022-12-07T19:58:33;12.60;;;4.75;;
46399;SDS011;32104;50.838;4.388;2022-12-07T20:01:22;11.23;;;5.07;;
46399;SDS011;32104;50.838;4.388;2022-12-07T20:04:12;9.20;;;4.47;;
46399;SDS011;32104;50.838;4.388;2022-12-07T20:06:47;10.52;;;4.63;;
46399;SDS011;32104;50.838;4.388;2022-12-07T20:09:19;7.68;;;4.40;;
46399;SDS011;32104;50.838;4.388;2022-12-07T20:11:46;12.38;;;4.45;;
46399;SDS011;32104;50.838;4.388;2022-12-07T20:14:36;18.48;;;6.03;;
46399;SDS011;32104;50.838;4.388;2022-12-07T20:17:11;16.85;;;5.22;;
46399;SDS011;32104;50.838;4.388;2022-12-07T20:19:45;11.65;;;4.97;;
46399;SDS011;32104;50.838;4.388;2022-12-07T20:22:20;11.55;;;4.97;;
46399;SDS011;32104;50.838;4.388;2022-12-07T20:27:46;8.23;;;4.18;;
46399;SDS011;32104;50.838;4.388;2022-12-07T20:30:25;16.15;;;5.68;;
46399;SDS011;32104;50.838;4.388;2022-12-07T20:32:53;15.18;;;5.47;;
46399;SDS011;32104;50.838;4.388;2022-12-07T20:35:19;11.00;;;4.85;;
46399;SDS011;32104;50.838;4.388;2022-12-07T20:40:27;8.13;;;3.83;;
46399;SDS011;32104;50.838;4.388;2022-12-07T20:43:06;10.60;;;4.07;;
46399;SDS011;32104;50.838;4.388;2022-12-07T20:45:33;12.70;;;4.03;;
46399;SDS011;32104;50.838;4.388;2022-12-07T20:48:42;9.25;;;3.88;;
46399;SDS011;32104;50.838;4.388;2022-12-07T20:54:24;7.18;;;3.22;;
46399;SDS011;32104;50.838;4.388;2022-12-07T20:56:55;6.72;;;3.00;;
46399;SDS011;32104;50.838;4.388;2022-12-07T22:30:05;13.30;;;4.60;;
46399;SDS011;32104;50.838;4.388;2022-12-07T22:48:32;15.85;;;7.53;;
46399;SDS011;32104;50.838;4.388;2022-12-07T22:50:58;20.17;;;6.43;;
46399;SDS011;32104;50.838;4.388;2022-12-07T22:53:38;20.85;;;7.20;;
46399;SDS011;32104;50.838;4.388;2022-12-07T22:56:14;16.00;;;6.97;;
46399;SDS011;32104;50.838;4.388;2022-12-07T22:59:07;16.77;;;7.30;;
46399;SDS011;32104;50.838;4.388;2022-12-07T23:25:03;26.13;;;11.07;;
46399;SDS011;32104;50.838;4.388;2022-12-07T23:45:36;33.13;;;13.38;;
46399;SDS011;32104;50.838;4.388;2022-12-07T23:48:03;32.55;;;12.40;;
